Conway Springs, Kansas
Current Conditions -  °F | °C
As of 7:53 AM on Thursday 27 Nov 2014 (Local Time) from KICT Reporting Station
Few Clouds Few Clouds  
Wind Chill: 19°   Ceiling: Unl
Heat Index: 25°   Visibility: 10mi
Dew Point: 18°   Wind: 5mph
Humidity: 75%   Direction: 40°NE
Pressure: 30.5"   Gusts: NA
Location:  37.39°N, 97.64°W
Report Text: KICT 271353Z 04004KT 10SM FEW200 M04/M08 A3050 RMK AO2 SLP342 T10391078
Loading
Personal Weather Stations






























Interactive Weather Map New forecast layout! Learn more

10-Day Weather Forecast

Advertisements
Track Severe Weather on mobile